sensor_id;sensor_type;location;lat;lon;timestamp;pressure;altitude;pressure_sealevel;temperature;humidity
64889;BME280;51386;53.082;8.816;2023-03-23T00:02:25;100208.94;;;15.42;66.98
64889;BME280;51386;53.082;8.816;2023-03-23T00:04:51;100201.75;;;15.49;66.38
64889;BME280;51386;53.082;8.816;2023-03-23T00:07:19;100176.50;;;15.40;66.37
64889;BME280;51386;53.082;8.816;2023-03-23T00:09:47;100169.16;;;15.42;67.07
64889;BME280;51386;53.082;8.816;2023-03-23T00:12:20;100159.56;;;15.41;66.75
64889;BME280;51386;53.082;8.816;2023-03-23T00:14:47;100181.53;;;15.48;66.60
64889;BME280;51386;53.082;8.816;2023-03-23T00:17:13;100173.31;;;15.56;66.45
64889;BME280;51386;53.082;8.816;2023-03-23T00:19:40;100190.84;;;15.57;66.29
64889;BME280;51386;53.082;8.816;2023-03-23T00:22:14;100188.94;;;15.64;65.72
64889;BME280;51386;53.082;8.816;2023-03-23T00:24:40;100185.81;;;15.67;65.80
64889;BME280;51386;53.082;8.816;2023-03-23T00:27:07;100180.84;;;15.59;65.96
64889;BME280;51386;53.082;8.816;2023-03-23T00:29:35;100180.69;;;15.54;66.05
64889;BME280;51386;53.082;8.816;2023-03-23T00:32:01;100173.31;;;15.56;66.08
64889;BME280;51386;53.082;8.816;2023-03-23T00:34:27;100168.97;;;15.62;66.00
64889;BME280;51386;53.082;8.816;2023-03-23T00:37:00;100159.81;;;15.57;65.96
64889;BME280;51386;53.082;8.816;2023-03-23T00:39:28;100157.81;;;15.53;66.21
64889;BME280;51386;53.082;8.816;2023-03-23T00:41:55;100150.75;;;15.47;66.10
64889;BME280;51386;53.082;8.816;2023-03-23T00:44:26;100153.78;;;15.50;66.56
64889;BME280;51386;53.082;8.816;2023-03-23T00:46:55;100150.75;;;15.47;66.43
64889;BME280;51386;53.082;8.816;2023-03-23T00:49:24;100152.16;;;15.49;66.33
64889;BME280;51386;53.082;8.816;2023-03-23T00:51:51;100139.84;;;15.55;66.24
64889;BME280;51386;53.082;8.816;2023-03-23T00:54:17;100141.81;;;15.59;66.38
64889;BME280;51386;53.082;8.816;2023-03-23T00:56:43;100141.78;;;15.66;65.63
64889;BME280;51386;53.082;8.816;2023-03-23T00:59:09;100144.63;;;15.65;65.52
64889;BME280;51386;53.082;8.816;2023-03-23T01:01:35;100134.03;;;15.65;65.95
64889;BME280;51386;53.082;8.816;2023-03-23T01:04:04;100132.84;;;15.61;66.05
64889;BME280;51386;53.082;8.816;2023-03-23T01:06:32;100123.63;;;15.63;65.96
64889;BME280;51386;53.082;8.816;2023-03-23T01:09:02;100117.16;;;15.59;65.97
64889;BME280;51386;53.082;8.816;2023-03-23T01:11:29;100115.25;;;15.66;66.16
64889;BME280;51386;53.082;8.816;2023-03-23T01:13:55;100116.41;;;15.70;65.74
64889;BME280;51386;53.082;8.816;2023-03-23T01:16:22;100113.59;;;15.65;66.40
64889;BME280;51386;53.082;8.816;2023-03-23T01:18:47;100120.47;;;15.73;65.63
64889;BME280;51386;53.082;8.816;2023-03-23T01:21:17;100106.53;;;15.77;65.21
64889;BME280;51386;53.082;8.816;2023-03-23T01:23:43;100113.56;;;15.83;65.28
64889;BME280;51386;53.082;8.816;2023-03-23T01:26:12;100115.44;;;15.83;65.37
64889;BME280;51386;53.082;8.816;2023-03-23T01:28:40;100130.25;;;15.72;65.88
64889;BME280;51386;53.082;8.816;2023-03-23T01:31:09;100121.72;;;15.70;65.97
64889;BME280;51386;53.082;8.816;2023-03-23T01:33:35;100114.44;;;15.66;66.16
64889;BME280;51386;53.082;8.816;2023-03-23T01:36:04;100118.09;;;15.65;66.07
64889;BME280;51386;53.082;8.816;2023-03-23T01:38:32;100107.97;;;15.62;66.67
64889;BME280;51386;53.082;8.816;2023-03-23T01:40:59;100103.44;;;15.62;66.10
64889;BME280;51386;53.082;8.816;2023-03-23T01:43:25;100101.69;;;15.56;66.65
64889;BME280;51386;53.082;8.816;2023-03-23T01:45:51;100097.78;;;15.58;66.66
64889;BME280;51386;53.082;8.816;2023-03-23T01:48:23;100107.72;;;15.63;66.32
64889;BME280;51386;53.082;8.816;2023-03-23T01:50:57;100098.59;;;15.59;66.07
64889;BME280;51386;53.082;8.816;2023-03-23T01:53:29;100093.44;;;15.64;66.40
64889;BME280;51386;53.082;8.816;2023-03-23T01:55:59;100092.38;;;15.65;66.41
64889;BME280;51386;53.082;8.816;2023-03-23T01:58:30;100099.31;;;15.66;66.08
64889;BME280;51386;53.082;8.816;2023-03-23T02:01:02;100097.59;;;15.72;66.13
64889;BME280;51386;53.082;8.816;2023-03-23T02:03:31;100097.97;;;15.75;65.80
64889;BME280;51386;53.082;8.816;2023-03-23T02:05:58;100090.59;;;15.77;65.71
64889;BME280;51386;53.082;8.816;2023-03-23T02:08:26;100090.16;;;15.80;65.33
64889;BME280;51386;53.082;8.816;2023-03-23T02:10:54;100085.38;;;15.71;65.81
64889;BME280;51386;53.082;8.816;2023-03-23T02:13:22;100080.53;;;15.68;66.06
64889;BME280;51386;53.082;8.816;2023-03-23T02:16:01;100078.41;;;15.58;65.94
64889;BME280;51386;53.082;8.816;2023-03-23T02:18:49;100073.22;;;15.63;66.06
64889;BME280;51386;53.082;8.816;2023-03-23T02:22:06;100069.56;;;15.64;65.76
64889;BME280;51386;53.082;8.816;2023-03-23T02:25:11;100055.53;;;15.75;65.52
64889;BME280;51386;53.082;8.816;2023-03-23T02:28:04;100049.78;;;15.78;65.43
64889;BME280;51386;53.082;8.816;2023-03-23T02:31:05;100044.22;;;15.80;65.25
64889;BME280;51386;53.082;8.816;2023-03-23T02:33:49;100037.66;;;15.82;64.89
64889;BME280;51386;53.082;8.816;2023-03-23T02:36:26;100043.41;;;15.79;65.05
64889;BME280;51386;53.082;8.816;2023-03-23T02:39:01;100049.78;;;15.78;65.12
64889;BME280;51386;53.082;8.816;2023-03-23T02:41:35;100044.81;;;15.82;65.22
64889;BME280;51386;53.082;8.816;2023-03-23T02:44:04;100056.81;;;15.84;64.97
64889;BME280;51386;53.082;8.816;2023-03-23T02:46:32;100050.38;;;15.92;64.71
64889;BME280;51386;53.082;8.816;2023-03-23T02:49:03;100038.06;;;15.97;64.41
64889;BME280;51386;53.082;8.816;2023-03-23T02:51:34;100023.75;;;15.98;64.30
64889;BME280;51386;53.082;8.816;2023-03-23T02:54:04;100010.47;;;15.98;64.13
64889;BME280;51386;53.082;8.816;2023-03-23T02:56:33;100003.88;;;15.89;64.27
64889;BME280;51386;53.082;8.816;2023-03-23T02:59:01;99990.22;;;15.86;64.43
64889;BME280;51386;53.082;8.816;2023-03-23T03:02:00;99992.00;;;15.62;64.61
64889;BME280;51386;53.082;8.816;2023-03-23T03:04:31;99989.22;;;15.57;65.13
64889;BME280;51386;53.082;8.816;2023-03-23T03:07:21;100004.31;;;15.45;65.55
64889;BME280;51386;53.082;8.816;2023-03-23T03:09:55;99996.38;;;15.38;65.76
64889;BME280;51386;53.082;8.816;2023-03-23T03:12:32;99988.97;;;15.47;65.40
64889;BME280;51386;53.082;8.816;2023-03-23T03:15:12;99971.25;;;15.41;65.46
64889;BME280;51386;53.082;8.816;2023-03-23T03:17:44;99965.31;;;15.45;65.33
64889;BME280;51386;53.082;8.816;2023-03-23T03:20:16;99963.84;;;15.49;64.95
64889;BME280;51386;53.082;8.816;2023-03-23T03:22:45;99969.72;;;15.51;64.82
64889;BME280;51386;53.082;8.816;2023-03-23T03:25:14;99967.69;;;15.65;64.65
64889;BME280;51386;53.082;8.816;2023-03-23T03:27:44;99957.66;;;15.67;64.55
64889;BME280;51386;53.082;8.816;2023-03-23T03:30:17;99956.06;;;15.66;64.42
64889;BME280;51386;53.082;8.816;2023-03-23T03:32:49;99975.00;;;15.81;63.96
64889;BME280;51386;53.082;8.816;2023-03-23T03:35:22;99985.19;;;15.96;63.48
64889;BME280;51386;53.082;8.816;2023-03-23T03:37:49;99964.06;;;15.89;63.37
64889;BME280;51386;53.082;8.816;2023-03-23T03:40:20;99961.41;;;15.89;63.28
64889;BME280;51386;53.082;8.816;2023-03-23T03:42:47;99964.63;;;15.91;63.63
64889;BME280;51386;53.082;8.816;2023-03-23T03:45:15;99981.16;;;15.93;63.71
64889;BME280;51386;53.082;8.816;2023-03-23T03:47:42;99982.19;;;15.92;63.38
64889;BME280;51386;53.082;8.816;2023-03-23T03:50:09;99980.13;;;15.94;63.64
64889;BME280;51386;53.082;8.816;2023-03-23T03:52:37;99975.50;;;16.01;63.21
64889;BME280;51386;53.082;8.816;2023-03-23T03:55:05;99979.44;;;15.99;63.18
64889;BME280;51386;53.082;8.816;2023-03-23T03:57:31;99985.19;;;16.07;62.78
64889;BME280;51386;53.082;8.816;2023-03-23T03:59:57;99970.78;;;16.15;62.32
64889;BME280;51386;53.082;8.816;2023-03-23T04:02:23;99976.47;;;16.18;62.33
64889;BME280;51386;53.082;8.816;2023-03-23T04:04:50;99976.91;;;16.15;62.49
64889;BME280;51386;53.082;8.816;2023-03-23T04:07:18;99986.72;;;16.15;62.40
64889;BME280;51386;53.082;8.816;2023-03-23T04:09:46;99974.94;;;16.11;62.25
64889;BME280;51386;53.082;8.816;2023-03-23T04:12:13;99977.13;;;16.02;62.41
64889;BME280;51386;53.082;8.816;2023-03-23T04:14:39;99980.81;;;16.01;62.38
64889;BME280;51386;53.082;8.816;2023-03-23T04:17:05;99966.50;;;16.02;62.74
64889;BME280;51386;53.082;8.816;2023-03-23T04:19:34;99979.31;;;16.05;62.53
64889;BME280;51386;53.082;8.816;2023-03-23T04:22:03;99964.09;;;16.12;62.04
64889;BME280;51386;53.082;8.816;2023-03-23T04:24:29;99965.94;;;16.12;61.93
64889;BME280;51386;53.082;8.816;2023-03-23T04:26:59;99966.28;;;16.15;62.21
64889;BME280;51386;53.082;8.816;2023-03-23T04:29:26;99966.88;;;16.17;62.01
64889;BME280;51386;53.082;8.816;2023-03-23T04:31:52;99971.94;;;16.19;61.75
64889;BME280;51386;53.082;8.816;2023-03-23T04:34:18;99971.03;;;16.25;61.44
64889;BME280;51386;53.082;8.816;2023-03-23T04:36:44;99970.59;;;16.28;61.22
64889;BME280;51386;53.082;8.816;2023-03-23T04:39:12;99980.28;;;16.34;61.08
64889;BME280;51386;53.082;8.816;2023-03-23T04:41:39;99972.06;;;16.36;60.65
64889;BME280;51386;53.082;8.816;2023-03-23T04:44:07;99967.94;;;16.40;60.57
64889;BME280;51386;53.082;8.816;2023-03-23T04:46:33;99965.03;;;16.41;60.38
64889;BME280;51386;53.082;8.816;2023-03-23T04:48:59;99964.69;;;16.38;60.24
64889;BME280;51386;53.082;8.816;2023-03-23T04:51:25;99958.31;;;16.39;60.28
64889;BME280;51386;53.082;8.816;2023-03-23T04:53:52;99950.94;;;16.41;60.41
64889;BME280;51386;53.082;8.816;2023-03-23T04:56:18;99950.03;;;16.47;60.29
64889;BME280;51386;53.082;8.816;2023-03-23T04:58:45;99955.22;;;16.42;60.09
64889;BME280;51386;53.082;8.816;2023-03-23T05:01:13;99969.66;;;16.34;60.04
64889;BME280;51386;53.082;8.816;2023-03-23T05:03:39;99959.59;;;16.24;60.23
64889;BME280;51386;53.082;8.816;2023-03-23T05:06:06;99967.69;;;16.30;60.20
64889;BME280;51386;53.082;8.816;2023-03-23T05:08:33;99967.22;;;16.33;60.44
64889;BME280;51386;53.082;8.816;2023-03-23T05:11:00;99961.22;;;16.37;60.40
64889;BME280;51386;53.082;8.816;2023-03-23T05:13:28;99969.66;;;16.34;60.08
64889;BME280;51386;53.082;8.816;2023-03-23T05:15:54;99962.38;;;16.30;60.20
64889;BME280;51386;53.082;8.816;2023-03-23T05:18:22;99969.66;;;16.34;60.34
64889;BME280;51386;53.082;8.816;2023-03-23T05:20:48;99955.53;;;16.45;60.05
64889;BME280;51386;53.082;8.816;2023-03-23T05:23:30;99960.06;;;16.45;59.91
64889;BME280;51386;53.082;8.816;2023-03-23T05:26:01;99964.47;;;16.39;60.19
64889;BME280;51386;53.082;8.816;2023-03-23T05:28:28;99954.06;;;16.38;60.13
64889;BME280;51386;53.082;8.816;2023-03-23T05:31:00;99943.44;;;16.38;60.13
64889;BME280;51386;53.082;8.816;2023-03-23T05:33:29;99951.63;;;16.48;60.01
64889;BME280;51386;53.082;8.816;2023-03-23T05:35:55;99946.47;;;16.53;59.69
64889;BME280;51386;53.082;8.816;2023-03-23T05:38:21;99941.16;;;16.53;59.62
64889;BME280;51386;53.082;8.816;2023-03-23T05:40:48;99933.16;;;16.53;60.02
64889;BME280;51386;53.082;8.816;2023-03-23T05:43:14;99928.97;;;16.45;60.14
64889;BME280;51386;53.082;8.816;2023-03-23T05:45:40;99931.19;;;16.37;60.31
64889;BME280;51386;53.082;8.816;2023-03-23T05:48:07;99939.03;;;16.32;60.03
64889;BME280;51386;53.082;8.816;2023-03-23T05:50:34;99935.13;;;16.11;60.52
64889;BME280;51386;53.082;8.816;2023-03-23T05:53:00;99939.28;;;16.18;60.60
64889;BME280;51386;53.082;8.816;2023-03-23T05:55:26;99943.66;;;16.24;60.37
64889;BME280;51386;53.082;8.816;2023-03-23T05:57:52;99944.94;;;16.22;60.44
64889;BME280;51386;53.082;8.816;2023-03-23T06:00:19;99959.59;;;16.24;60.38
64889;BME280;51386;53.082;8.816;2023-03-23T06:02:46;99958.78;;;16.36;59.84
64889;BME280;51386;53.082;8.816;2023-03-23T06:05:13;99961.44;;;16.36;59.76
64889;BME280;51386;53.082;8.816;2023-03-23T06:07:42;99956.25;;;16.41;59.71
64889;BME280;51386;53.082;8.816;2023-03-23T06:10:13;99956.38;;;16.46;59.11
64889;BME280;51386;53.082;8.816;2023-03-23T06:12:44;99958.13;;;16.52;58.83
64889;BME280;51386;53.082;8.816;2023-03-23T06:15:10;99950.84;;;16.59;58.70
64889;BME280;51386;53.082;8.816;2023-03-23T06:17:37;99948.78;;;16.61;58.51
64889;BME280;51386;53.082;8.816;2023-03-23T06:20:05;99967.81;;;16.58;58.76
64889;BME280;51386;53.082;8.816;2023-03-23T06:22:36;99959.84;;;16.58;58.41
64889;BME280;51386;53.082;8.816;2023-03-23T06:25:06;99963.91;;;16.60;58.59
64889;BME280;51386;53.082;8.816;2023-03-23T06:27:33;99961.09;;;16.67;58.38
64889;BME280;51386;53.082;8.816;2023-03-23T06:29:59;99964.69;;;16.72;58.47
64889;BME280;51386;53.082;8.816;2023-03-23T06:32:28;99960.63;;;16.81;57.63
64889;BME280;51386;53.082;8.816;2023-03-23T06:34:55;99967.69;;;16.76;58.01
64889;BME280;51386;53.082;8.816;2023-03-23T06:37:23;99975.88;;;16.86;58.00
64889;BME280;51386;53.082;8.816;2023-03-23T06:39:50;99976.34;;;16.95;57.49
64889;BME280;51386;53.082;8.816;2023-03-23T06:42:19;99978.06;;;16.89;57.33
64889;BME280;51386;53.082;8.816;2023-03-23T06:44:45;99979.69;;;16.78;58.05
64889;BME280;51386;53.082;8.816;2023-03-23T06:47:11;99981.06;;;16.81;58.16
64889;BME280;51386;53.082;8.816;2023-03-23T06:49:37;99990.34;;;16.67;58.29
64889;BME280;51386;53.082;8.816;2023-03-23T06:52:06;99977.16;;;16.72;58.52
64889;BME280;51386;53.082;8.816;2023-03-23T06:54:33;99986.41;;;16.81;58.43
64889;BME280;51386;53.082;8.816;2023-03-23T06:56:59;99983.50;;;16.94;58.32
64889;BME280;51386;53.082;8.816;2023-03-23T06:59:26;99980.84;;;16.94;58.35
64889;BME280;51386;53.082;8.816;2023-03-23T07:01:52;99976.13;;;16.84;58.54
64889;BME280;51386;53.082;8.816;2023-03-23T07:04:19;99989.03;;;16.92;58.59
64889;BME280;51386;53.082;8.816;2023-03-23T07:06:45;99992.03;;;16.96;58.77
64889;BME280;51386;53.082;8.816;2023-03-23T07:09:12;99999.28;;;17.12;58.30
64889;BME280;51386;53.082;8.816;2023-03-23T07:11:38;99990.00;;;17.26;58.29
64889;BME280;51386;53.082;8.816;2023-03-23T07:14:04;100000.69;;;17.43;57.89
64889;BME280;51386;53.082;8.816;2023-03-23T07:16:32;99998.50;;;17.51;57.78
64889;BME280;51386;53.082;8.816;2023-03-23T07:18:58;99995.13;;;17.56;57.67
64889;BME280;51386;53.082;8.816;2023-03-23T07:21:24;100001.34;;;17.50;57.85
64889;BME280;51386;53.082;8.816;2023-03-23T07:23:50;100005.28;;;17.47;58.12
64889;BME280;51386;53.082;8.816;2023-03-23T07:26:16;100013.69;;;17.39;58.20
64889;BME280;51386;53.082;8.816;2023-03-23T07:28:42;100003.75;;;17.35;58.37
64889;BME280;51386;53.082;8.816;2023-03-23T07:31:08;100061.09;;;17.31;59.17
64889;BME280;51386;53.082;8.816;2023-03-23T07:33:36;100053.66;;;17.16;59.41
64889;BME280;51386;53.082;8.816;2023-03-23T07:36:04;100067.41;;;17.02;59.83
64889;BME280;51386;53.082;8.816;2023-03-23T07:38:30;100060.94;;;16.86;60.30
64889;BME280;51386;53.082;8.816;2023-03-23T07:40:56;100050.88;;;16.76;60.50
64889;BME280;51386;53.082;8.816;2023-03-23T07:43:23;100069.63;;;16.70;60.67
64889;BME280;51386;53.082;8.816;2023-03-23T07:45:49;100069.72;;;16.63;60.61
64889;BME280;51386;53.082;8.816;2023-03-23T07:48:15;100075.25;;;16.62;60.85
64889;BME280;51386;53.082;8.816;2023-03-23T07:50:43;100061.75;;;16.52;60.57
64889;BME280;51386;53.082;8.816;2023-03-23T07:53:09;100052.00;;;16.46;60.70
64889;BME280;51386;53.082;8.816;2023-03-23T07:55:36;100054.78;;;16.39;60.62
64889;BME280;51386;53.082;8.816;2023-03-23T07:58:03;100059.13;;;16.34;60.76
64889;BME280;51386;53.082;8.816;2023-03-23T08:00:29;100066.53;;;16.32;60.74
64889;BME280;51386;53.082;8.816;2023-03-23T08:02:57;100081.44;;;16.33;60.83
64889;BME280;51386;53.082;8.816;2023-03-23T08:05:24;100074.06;;;16.35;60.67
64889;BME280;51386;53.082;8.816;2023-03-23T08:07:54;100087.34;;;16.35;60.60
64889;BME280;51386;53.082;8.816;2023-03-23T08:10:31;100087.78;;;16.32;60.37
64889;BME280;51386;53.082;8.816;2023-03-23T08:13:10;100080.88;;;16.31;60.57
64889;BME280;51386;53.082;8.816;2023-03-23T08:15:36;100096.00;;;16.30;60.37
64889;BME280;51386;53.082;8.816;2023-03-23T08:18:04;100093.09;;;16.32;60.35
64889;BME280;51386;53.082;8.816;2023-03-23T08:20:31;100100.94;;;16.26;60.36
64889;BME280;51386;53.082;8.816;2023-03-23T08:22:59;100107.38;;;16.19;60.45
64889;BME280;51386;53.082;8.816;2023-03-23T08:25:28;100110.38;;;16.22;60.49
64889;BME280;51386;53.082;8.816;2023-03-23T08:27:57;100089.97;;;16.23;60.48
64889;BME280;51386;53.082;8.816;2023-03-23T08:30:24;100098.13;;;16.21;60.59
64889;BME280;51386;53.082;8.816;2023-03-23T08:32:54;100103.94;;;16.18;60.41
64889;BME280;51386;53.082;8.816;2023-03-23T08:35:21;100109.22;;;16.18;60.67
64889;BME280;51386;53.082;8.816;2023-03-23T08:37:47;100110.03;;;16.19;60.74
64889;BME280;51386;53.082;8.816;2023-03-23T08:40:20;100101.84;;;16.20;60.58
64889;BME280;51386;53.082;8.816;2023-03-23T08:42:49;100102.44;;;16.22;60.78
64889;BME280;51386;53.082;8.816;2023-03-23T08:45:19;100104.63;;;16.25;60.31
64889;BME280;51386;53.082;8.816;2023-03-23T08:47:46;100106.38;;;16.32;60.54
64889;BME280;51386;53.082;8.816;2023-03-23T08:50:20;100110.19;;;16.36;60.54
64889;BME280;51386;53.082;8.816;2023-03-23T08:52:48;100105.38;;;16.44;60.57
64889;BME280;51386;53.082;8.816;2023-03-23T08:55:16;100107.25;;;16.55;60.40
64889;BME280;51386;53.082;8.816;2023-03-23T08:57:45;100124.84;;;16.68;60.24
64889;BME280;51386;53.082;8.816;2023-03-23T09:00:19;100115.72;;;16.75;59.94
64889;BME280;51386;53.082;8.816;2023-03-23T09:02:52;100111.56;;;16.79;59.55
64889;BME280;51386;53.082;8.816;2023-03-23T09:05:26;100105.44;;;16.79;59.69
64889;BME280;51386;53.082;8.816;2023-03-23T09:07:56;100113.53;;;16.84;59.66
64889;BME280;51386;53.082;8.816;2023-03-23T09:10:26;100121.19;;;16.92;59.43
64889;BME280;51386;53.082;8.816;2023-03-23T09:12:54;100123.94;;;16.97;59.38
64889;BME280;51386;53.082;8.816;2023-03-23T09:15:21;100123.47;;;17.00;59.30
64889;BME280;51386;53.082;8.816;2023-03-23T09:17:50;100114.47;;;17.01;59.15
64889;BME280;51386;53.082;8.816;2023-03-23T09:20:21;100115.28;;;17.02;59.13
64889;BME280;51386;53.082;8.816;2023-03-23T09:22:51;100121.38;;;17.02;58.92
64889;BME280;51386;53.082;8.816;2023-03-23T09:25:23;100134.09;;;17.00;59.15
64889;BME280;51386;53.082;8.816;2023-03-23T09:27:56;100137.34;;;17.02;59.05
64889;BME280;51386;53.082;8.816;2023-03-23T09:30:25;100135.63;;;17.08;59.33
64889;BME280;51386;53.082;8.816;2023-03-23T09:32:53;100144.41;;;16.97;59.47
64889;BME280;51386;53.082;8.816;2023-03-23T09:35:20;100140.69;;;16.98;59.41
64889;BME280;51386;53.082;8.816;2023-03-23T09:37:50;100119.78;;;17.01;59.07
64889;BME280;51386;53.082;8.816;2023-03-23T09:40:19;100120.03;;;17.11;59.04
64889;BME280;51386;53.082;8.816;2023-03-23T09:43:06;100123.56;;;17.17;58.31
64889;BME280;51386;53.082;8.816;2023-03-23T09:45:46;100140.22;;;17.24;58.43
64889;BME280;51386;53.082;8.816;2023-03-23T09:48:36;100143.81;;;17.29;58.14
64889;BME280;51386;53.082;8.816;2023-03-23T09:51:17;100141.28;;;17.34;57.56
64889;BME280;51386;53.082;8.816;2023-03-23T09:53:52;100135.84;;;17.18;57.20
64889;BME280;51386;53.082;8.816;2023-03-23T09:56:26;100141.03;;;17.24;57.47
64889;BME280;51386;53.082;8.816;2023-03-23T09:59:00;100152.03;;;17.39;57.15
64889;BME280;51386;53.082;8.816;2023-03-23T10:01:34;100145.06;;;17.73;57.32
64889;BME280;51386;53.082;8.816;2023-03-23T10:04:09;100144.38;;;18.06;56.13
64889;BME280;51386;53.082;8.816;2023-03-23T10:06:37;100143.44;;;18.28;55.18
64889;BME280;51386;53.082;8.816;2023-03-23T10:09:06;100157.84;;;18.44;55.13
64889;BME280;51386;53.082;8.816;2023-03-23T10:11:50;100172.19;;;18.55;54.49
64889;BME280;51386;53.082;8.816;2023-03-23T10:14:44;100175.81;;;18.49;53.65
64889;BME280;51386;53.082;8.816;2023-03-23T10:17:18;100182.78;;;18.66;54.22
64889;BME280;51386;53.082;8.816;2023-03-23T10:19:53;100184.97;;;19.03;53.50
64889;BME280;51386;53.082;8.816;2023-03-23T10:22:28;100185.44;;;19.33;52.94
64889;BME280;51386;53.082;8.816;2023-03-23T10:25:22;100182.13;;;19.42;52.18
64889;BME280;51386;53.082;8.816;2023-03-23T10:32:47;100187.47;;;19.09;51.97
64889;BME280;51386;53.082;8.816;2023-03-23T10:35:55;100185.06;;;19.08;51.62
64889;BME280;51386;53.082;8.816;2023-03-23T10:42:22;100179.88;;;19.34;51.77
64889;BME280;51386;53.082;8.816;2023-03-23T10:46:00;100184.38;;;19.50;51.64
64889;BME280;51386;53.082;8.816;2023-03-23T10:54:39;100171.16;;;19.22;50.80
64889;BME280;51386;53.082;8.816;2023-03-23T10:58:22;100165.81;;;19.22;51.61
64889;BME280;51386;53.082;8.816;2023-03-23T11:01:00;100175.94;;;19.37;51.07
64889;BME280;51386;53.082;8.816;2023-03-23T11:06:44;100190.66;;;19.23;50.87
64889;BME280;51386;53.082;8.816;2023-03-23T11:09:55;100183.53;;;19.12;51.06
64889;BME280;51386;53.082;8.816;2023-03-23T11:12:45;100180.13;;;19.16;50.92
64889;BME280;51386;53.082;8.816;2023-03-23T11:15:30;100182.00;;;19.16;50.86
64889;BME280;51386;53.082;8.816;2023-03-23T11:19:12;100169.69;;;19.15;50.78
64889;BME280;51386;53.082;8.816;2023-03-23T11:21:50;100186.34;;;19.22;50.58
64889;BME280;51386;53.082;8.816;2023-03-23T11:24:17;100184.88;;;19.31;50.75
64889;BME280;51386;53.082;8.816;2023-03-23T11:26:45;100195.88;;;19.34;50.63
64889;BME280;51386;53.082;8.816;2023-03-23T11:29:16;100201.06;;;19.41;50.51
64889;BME280;51386;53.082;8.816;2023-03-23T11:31:45;100197.91;;;19.44;50.59
64889;BME280;51386;53.082;8.816;2023-03-23T11:34:21;100199.44;;;19.40;50.42
64889;BME280;51386;53.082;8.816;2023-03-23T11:36:51;100208.72;;;19.21;50.19
64889;BME280;51386;53.082;8.816;2023-03-23T11:39:23;100208.34;;;19.12;50.88
64889;BME280;51386;53.082;8.816;2023-03-23T11:41:51;100209.16;;;19.46;51.18
64889;BME280;51386;53.082;8.816;2023-03-23T11:44:17;100209.91;;;20.01;50.06
64889;BME280;51386;53.082;8.816;2023-03-23T11:46:53;100207.34;;;20.60;49.10
64889;BME280;51386;53.082;8.816;2023-03-23T11:49:35;100209.28;;;20.96;47.55
64889;BME280;51386;53.082;8.816;2023-03-23T11:52:12;100201.97;;;21.18;46.53
64889;BME280;51386;53.082;8.816;2023-03-23T11:54:46;100205.38;;;21.45;45.61
64889;BME280;51386;53.082;8.816;2023-03-23T11:57:16;100200.66;;;21.63;46.18
64889;BME280;51386;53.082;8.816;2023-03-23T11:59:44;100198.28;;;21.24;45.00
64889;BME280;51386;53.082;8.816;2023-03-23T12:02:39;100190.59;;;21.01;46.54
64889;BME280;51386;53.082;8.816;2023-03-23T12:05:40;100198.03;;;20.94;46.70
64889;BME280;51386;53.082;8.816;2023-03-23T12:08:28;100191.97;;;21.45;46.20
64889;BME280;51386;53.082;8.816;2023-03-23T12:11:08;100191.25;;;22.12;45.54
64889;BME280;51386;53.082;8.816;2023-03-23T12:16:26;100195.53;;;22.18;44.19
64889;BME280;51386;53.082;8.816;2023-03-23T12:19:09;100182.66;;;22.10;43.68
64889;BME280;51386;53.082;8.816;2023-03-23T12:21:51;100190.13;;;21.98;44.09
64889;BME280;51386;53.082;8.816;2023-03-23T12:24:35;100183.59;;;21.84;44.34
64889;BME280;51386;53.082;8.816;2023-03-23T12:27:13;100181.16;;;21.72;43.50
64889;BME280;51386;53.082;8.816;2023-03-23T12:30:02;100190.53;;;21.75;44.86
64889;BME280;51386;53.082;8.816;2023-03-23T12:32:49;100187.47;;;22.03;44.79
64889;BME280;51386;53.082;8.816;2023-03-23T12:35:36;100191.28;;;22.22;43.78
64889;BME280;51386;53.082;8.816;2023-03-23T12:41:15;100194.31;;;21.84;43.20
64889;BME280;51386;53.082;8.816;2023-03-23T12:43:51;100197.75;;;21.69;43.50
64889;BME280;51386;53.082;8.816;2023-03-23T12:46:47;100191.59;;;21.74;43.21
64889;BME280;51386;53.082;8.816;2023-03-23T12:49:23;100188.47;;;21.92;43.02
64889;BME280;51386;53.082;8.816;2023-03-23T12:51:57;100180.66;;;22.72;42.51
64889;BME280;51386;53.082;8.816;2023-03-23T12:54:33;100176.31;;;23.37;40.86
64889;BME280;51386;53.082;8.816;2023-03-23T12:57:08;100178.97;;;23.52;39.67
64889;BME280;51386;53.082;8.816;2023-03-23T12:59:44;100181.13;;;23.50;39.16
64889;BME280;51386;53.082;8.816;2023-03-23T13:02:21;100179.53;;;23.44;39.37
64889;BME280;51386;53.082;8.816;2023-03-23T13:04:54;100184.94;;;23.39;38.99
64889;BME280;51386;53.082;8.816;2023-03-23T13:07:29;100181.97;;;23.35;38.86
64889;BME280;51386;53.082;8.816;2023-03-23T13:10:27;100170.38;;;23.30;38.58
64889;BME280;51386;53.082;8.816;2023-03-23T13:13:40;100177.34;;;23.56;38.36
64889;BME280;51386;53.082;8.816;2023-03-23T13:16:26;100171.78;;;24.11;38.02
64889;BME280;51386;53.082;8.816;2023-03-23T13:19:19;100166.63;;;24.59;37.38
64889;BME280;51386;53.082;8.816;2023-03-23T13:23:10;100169.00;;;25.28;35.14
64889;BME280;51386;53.082;8.816;2023-03-23T13:25:50;100174.88;;;25.06;35.16
64889;BME280;51386;53.082;8.816;2023-03-23T13:28:22;100171.78;;;24.55;34.94
64889;BME280;51386;53.082;8.816;2023-03-23T13:31:29;100178.94;;;23.67;36.39
64889;BME280;51386;53.082;8.816;2023-03-23T13:35:20;100186.56;;;22.79;37.92
64889;BME280;51386;53.082;8.816;2023-03-23T13:38:34;100202.56;;;22.29;38.44
64889;BME280;51386;53.082;8.816;2023-03-23T13:41:08;100229.75;;;21.91;39.39
64889;BME280;51386;53.082;8.816;2023-03-23T13:43:38;100219.84;;;21.49;39.17
64889;BME280;51386;53.082;8.816;2023-03-23T13:46:13;100212.63;;;21.08;40.21
64889;BME280;51386;53.082;8.816;2023-03-23T13:49:02;100255.53;;;20.65;42.16